Tropical Cyclones
[Index]
Main Index Home Page Stock Weather Photos Extreme Storms Discussion Storm News and Storm Chasing Reports Tropical Cyclones / Hurricanes / Typhoons Weather Data and Links Wild Fires / Bushfires Weather Observation Techniques Weather Picture Catalogue Tornado Pictures and Reports Stock Video Footage and DVDs for sale
Season 1952-1953 Tropical Cyclone 195314 Track Map
Season 1952-1953 Summaries: [BoM-AU] [JTWC-AU] [JTWC-SIO] [JTWC-SPAC] [JTWC-SH]
<<- Previous TC | JTWC 1952-1953 Season | Next TC ->>

click for intensity scale information  Lat/long Grid: Show Hide

 Date Labels: Show Hide

Joint Typhoon Warning Centre Cyclone Data

Name: 195314
Number: 193 / 5314

01 Mar 1953 00:00 UTC to 08 Mar 1953 00:00 UTC

    date/time    lat    long     hPa   cat  kts
1953-03-01 00   13.0   161.5                              
1953-03-01 06   13.5   161.6                              
1953-03-01 12   13.9   161.7                              
1953-03-01 18   14.1   161.8                              
1953-03-02 00   14.3   162.0                              
1953-03-02 06   14.6   162.2                              
1953-03-02 12   14.8   162.5                              
1953-03-02 18   15.0   162.7                              
1953-03-03 00   15.2   162.9                              
1953-03-03 06   15.5   163.5                              
1953-03-03 12   16.0   164.3                              
1953-03-03 18   16.5   164.8                              
1953-03-04 00   17.0   165.2                              
1953-03-04 06   17.4   165.4                              
1953-03-04 12   17.8   165.5                              
1953-03-04 18   18.3   165.5                              
1953-03-05 00   18.7   165.6                              
1953-03-05 06   19.0   165.8                              
1953-03-05 12   19.3   166.0                              
1953-03-05 18   19.6   166.2                              
1953-03-06 00   20.0   166.5                              
1953-03-06 06   20.7   167.2                              
1953-03-06 12   21.5   168.4                              
1953-03-06 18   21.9   169.6                              
1953-03-07 00   22.2   171.1                              
1953-03-07 06   22.8   173.1                              
1953-03-07 12   23.3   175.4                              
1953-03-07 18   23.5   177.7                              
1953-03-08 00   23.4   179.9W                             
Winds are 1-min average.

Tropical cyclone tracks developed by Michael Bath using data from the Joint Typhoon Warning Centre Best Tracks and Google Maps.


[Australian Severe Weather index] [Copyright Notice] [Email Contacts] [Search This Site] [Privacy Policy]
Document: tropical_cyclone_195314.htm Updated: 18 September 2016